sensor_id;sensor_type;location;lat;lon;timestamp;pressure;altitude;pressure_sealevel;temperature;humidity
69127;BME280;56688;50.234;19.292;2024-03-23T00:56:16;97867.29;;;10.74;64.32
69127;BME280;56688;50.234;19.292;2024-03-23T00:58:41;97869.58;;;10.71;64.65
69127;BME280;56688;50.234;19.292;2024-03-23T01:01:07;97867.77;;;10.68;64.92
69127;BME280;56688;50.234;19.292;2024-03-23T01:03:33;97867.56;;;10.64;65.03
69127;BME280;56688;50.234;19.292;2024-03-23T01:06:00;97863.73;;;10.58;65.66
69127;BME280;56688;50.234;19.292;2024-03-23T01:08:26;97855.52;;;10.51;65.54
69127;BME280;56688;50.234;19.292;2024-03-23T01:10:54;97857.68;;;10.47;65.66
69127;BME280;56688;50.234;19.292;2024-03-23T01:13:20;97852.71;;;10.46;65.75
69127;BME280;56688;50.234;19.292;2024-03-23T01:15:49;97847.98;;;10.46;66.33
69127;BME280;56688;50.234;19.292;2024-03-23T01:18:15;97848.81;;;10.46;66.56
69127;BME280;56688;50.234;19.292;2024-03-23T01:20:41;97847.37;;;10.44;66.46
69127;BME280;56688;50.234;19.292;2024-03-23T01:23:07;97847.16;;;10.41;66.97
69127;BME280;56688;50.234;19.292;2024-03-23T01:25:33;97841.03;;;10.37;67.73
69127;BME280;56688;50.234;19.292;2024-03-23T01:27:58;97835.60;;;10.34;67.92
69127;BME280;56688;50.234;19.292;2024-03-23T01:30:24;97835.10;;;10.32;68.24
69127;BME280;56688;50.234;19.292;2024-03-23T01:32:50;97831.43;;;10.27;68.55
69127;BME280;56688;50.234;19.292;2024-03-23T01:35:16;97829.11;;;10.22;68.94
69127;BME280;56688;50.234;19.292;2024-03-23T01:37:42;97821.52;;;10.14;69.19
69127;BME280;56688;50.234;19.292;2024-03-23T01:40:08;97820.23;;;10.07;69.29
69127;BME280;56688;50.234;19.292;2024-03-23T01:42:34;97814.31;;;10.03;69.41
69127;BME280;56688;50.234;19.292;2024-03-23T01:45:00;97815.28;;;10.02;70.09
69127;BME280;56688;50.234;19.292;2024-03-23T01:47:26;97809.00;;;10.03;70.45
69127;BME280;56688;50.234;19.292;2024-03-23T01:49:52;97808.34;;;10.01;70.66
69127;BME280;56688;50.234;19.292;2024-03-23T01:52:19;97805.02;;;9.98;70.80
69127;BME280;56688;50.234;19.292;2024-03-23T01:54:44;97805.97;;;9.96;70.97
69127;BME280;56688;50.234;19.292;2024-03-23T01:57:11;97805.99;;;9.92;71.05
69127;BME280;56688;50.234;19.292;2024-03-23T01:59:36;97804.79;;;9.88;71.13
69127;BME280;56688;50.234;19.292;2024-03-23T02:02:02;97801.93;;;9.83;71.46
69127;BME280;56688;50.234;19.292;2024-03-23T02:04:29;97797.90;;;9.77;71.82
69127;BME280;56688;50.234;19.292;2024-03-23T02:06:55;97795.92;;;9.74;72.18
69127;BME280;56688;50.234;19.292;2024-03-23T02:09:20;97794.67;;;9.71;72.28
69127;BME280;56688;50.234;19.292;2024-03-23T02:11:46;97791.14;;;9.70;72.36
69127;BME280;56688;50.234;19.292;2024-03-23T02:14:12;97792.95;;;9.69;72.40
69127;BME280;56688;50.234;19.292;2024-03-23T02:16:38;97790.70;;;9.65;72.54
69127;BME280;56688;50.234;19.292;2024-03-23T02:19:04;97783.06;;;9.61;72.58
69127;BME280;56688;50.234;19.292;2024-03-23T02:21:30;97785.33;;;9.60;72.79
69127;BME280;56688;50.234;19.292;2024-03-23T02:23:59;97781.68;;;9.57;72.79
69127;BME280;56688;50.234;19.292;2024-03-23T02:26:25;97778.81;;;9.53;72.84
69127;BME280;56688;50.234;19.292;2024-03-23T02:28:51;97778.83;;;9.50;72.87
69127;BME280;56688;50.234;19.292;2024-03-23T02:31:17;97777.19;;;9.48;72.68
69127;BME280;56688;50.234;19.292;2024-03-23T02:33:42;97773.52;;;9.51;72.90
69127;BME280;56688;50.234;19.292;2024-03-23T02:36:08;97773.92;;;9.52;72.89
69127;BME280;56688;50.234;19.292;2024-03-23T02:38:34;97773.23;;;9.52;73.18
69127;BME280;56688;50.234;19.292;2024-03-23T02:41:03;97771.98;;;9.50;73.01
69127;BME280;56688;50.234;19.292;2024-03-23T02:43:29;97759.91;;;9.46;72.84
69127;BME280;56688;50.234;19.292;2024-03-23T02:45:55;97742.46;;;9.42;73.15
69127;BME280;56688;50.234;19.292;2024-03-23T02:48:21;97736.66;;;9.36;73.33
69127;BME280;56688;50.234;19.292;2024-03-23T02:50:47;97745.58;;;9.33;72.93
69127;BME280;56688;50.234;19.292;2024-03-23T02:53:13;97750.33;;;9.30;73.48
69127;BME280;56688;50.234;19.292;2024-03-23T02:55:39;97746.15;;;9.31;73.71
69127;BME280;56688;50.234;19.292;2024-03-23T02:58:05;97748.49;;;9.34;73.56
69127;BME280;56688;50.234;19.292;2024-03-23T03:00:31;97737.77;;;9.39;72.85
69127;BME280;56688;50.234;19.292;2024-03-23T03:02:56;97730.13;;;9.45;71.19
69127;BME280;56688;50.234;19.292;2024-03-23T03:05:22;97738.89;;;9.55;70.23
69127;BME280;56688;50.234;19.292;2024-03-23T03:07:48;97738.35;;;9.62;70.92
69127;BME280;56688;50.234;19.292;2024-03-23T03:10:14;97729.66;;;9.65;71.78
69127;BME280;56688;50.234;19.292;2024-03-23T03:12:40;97723.97;;;9.67;71.61
69127;BME280;56688;50.234;19.292;2024-03-23T03:15:06;97720.10;;;9.67;71.30
69127;BME280;56688;50.234;19.292;2024-03-23T03:17:32;97722.08;;;9.66;70.51
69127;BME280;56688;50.234;19.292;2024-03-23T03:19:58;97713.54;;;9.70;70.25
69127;BME280;56688;50.234;19.292;2024-03-23T03:22:24;97705.46;;;9.76;68.87
69127;BME280;56688;50.234;19.292;2024-03-23T03:24:49;97713.77;;;9.85;68.20
69127;BME280;56688;50.234;19.292;2024-03-23T03:27:15;97717.56;;;9.91;68.71
69127;BME280;56688;50.234;19.292;2024-03-23T03:29:41;97717.31;;;9.95;69.70
69127;BME280;56688;50.234;19.292;2024-03-23T03:32:07;97714.95;;;9.97;70.08
69127;BME280;56688;50.234;19.292;2024-03-23T03:34:33;97716.63;;;10.02;70.21
69127;BME280;56688;50.234;19.292;2024-03-23T03:36:59;97717.90;;;10.02;70.54
69127;BME280;56688;50.234;19.292;2024-03-23T03:39:25;97712.08;;;10.00;70.99
69127;BME280;56688;50.234;19.292;2024-03-23T03:41:52;97708.30;;;9.96;71.67
69127;BME280;56688;50.234;19.292;2024-03-23T03:44:18;97712.64;;;9.96;72.54
69127;BME280;56688;50.234;19.292;2024-03-23T03:46:43;97709.77;;;9.95;73.09
69127;BME280;56688;50.234;19.292;2024-03-23T03:49:09;97703.08;;;9.94;73.34
69127;BME280;56688;50.234;19.292;2024-03-23T03:51:36;97689.45;;;9.97;73.95
69127;BME280;56688;50.234;19.292;2024-03-23T03:54:02;97693.93;;;9.99;74.72
69127;BME280;56688;50.234;19.292;2024-03-23T03:56:28;97692.54;;;9.98;75.04
69127;BME280;56688;50.234;19.292;2024-03-23T03:58:54;97690.88;;;9.96;75.04
69127;BME280;56688;50.234;19.292;2024-03-23T04:01:20;97690.44;;;9.93;75.40
69127;BME280;56688;50.234;19.292;2024-03-23T04:03:46;97693.88;;;9.87;75.56
69127;BME280;56688;50.234;19.292;2024-03-23T04:06:18;97694.95;;;9.83;75.98
69127;BME280;56688;50.234;19.292;2024-03-23T04:08:44;97692.74;;;9.80;76.26
69127;BME280;56688;50.234;19.292;2024-03-23T04:11:10;97694.31;;;9.79;76.79
69127;BME280;56688;50.234;19.292;2024-03-23T04:13:36;97695.91;;;9.79;77.22
69127;BME280;56688;50.234;19.292;2024-03-23T04:16:02;97699.36;;;9.81;77.49
69127;BME280;56688;50.234;19.292;2024-03-23T04:18:28;97695.80;;;9.82;78.02
69127;BME280;56688;50.234;19.292;2024-03-23T04:20:54;97701.91;;;9.85;78.23
69127;BME280;56688;50.234;19.292;2024-03-23T04:23:20;97696.34;;;9.85;78.42
69127;BME280;56688;50.234;19.292;2024-03-23T04:25:47;97697.11;;;9.84;78.27
69127;BME280;56688;50.234;19.292;2024-03-23T04:28:12;97694.39;;;9.80;78.48
69127;BME280;56688;50.234;19.292;2024-03-23T04:30:38;97693.33;;;9.75;78.55
69127;BME280;56688;50.234;19.292;2024-03-23T04:33:04;97677.14;;;9.71;78.93
69127;BME280;56688;50.234;19.292;2024-03-23T04:35:30;97659.86;;;9.70;79.41
69127;BME280;56688;50.234;19.292;2024-03-23T04:37:57;97660.73;;;9.69;79.55
69127;BME280;56688;50.234;19.292;2024-03-23T04:40:25;97655.14;;;9.64;79.51
69127;BME280;56688;50.234;19.292;2024-03-23T04:42:51;97649.76;;;9.58;79.70
69127;BME280;56688;50.234;19.292;2024-03-23T04:45:17;97639.56;;;9.49;80.11
69127;BME280;56688;50.234;19.292;2024-03-23T04:47:43;97636.75;;;9.37;80.41
69127;BME280;56688;50.234;19.292;2024-03-23T04:50:09;97633.80;;;9.21;80.94
69127;BME280;56688;50.234;19.292;2024-03-23T04:52:36;97634.14;;;9.08;81.41
69127;BME280;56688;50.234;19.292;2024-03-23T04:55:03;97631.84;;;8.99;81.81
69127;BME280;56688;50.234;19.292;2024-03-23T04:57:29;97633.05;;;8.92;82.12
69127;BME280;56688;50.234;19.292;2024-03-23T04:59:55;97625.75;;;8.92;82.44
69127;BME280;56688;50.234;19.292;2024-03-23T05:02:21;97623.38;;;8.93;82.74
69127;BME280;56688;50.234;19.292;2024-03-23T05:04:48;97615.71;;;8.96;83.06
69127;BME280;56688;50.234;19.292;2024-03-23T05:07:14;97614.20;;;8.96;83.32
69127;BME280;56688;50.234;19.292;2024-03-23T05:09:40;97612.41;;;8.99;83.37
69127;BME280;56688;50.234;19.292;2024-03-23T05:12:06;97614.27;;;9.04;83.38
69127;BME280;56688;50.234;19.292;2024-03-23T05:14:32;97613.88;;;9.05;83.41
69127;BME280;56688;50.234;19.292;2024-03-23T05:16:58;97615.73;;;9.07;83.52
69127;BME280;56688;50.234;19.292;2024-03-23T05:19:24;97614.09;;;9.12;83.75
69127;BME280;56688;50.234;19.292;2024-03-23T05:21:49;97614.93;;;9.17;83.94
69127;BME280;56688;50.234;19.292;2024-03-23T05:24:15;97618.73;;;9.27;84.07
69127;BME280;56688;50.234;19.292;2024-03-23T05:26:42;97620.96;;;9.34;83.93
69127;BME280;56688;50.234;19.292;2024-03-23T05:29:08;97624.86;;;9.39;83.85
69127;BME280;56688;50.234;19.292;2024-03-23T05:31:36;97632.96;;;9.44;83.81
69127;BME280;56688;50.234;19.292;2024-03-23T05:34:03;97633.73;;;9.47;83.72
69127;BME280;56688;50.234;19.292;2024-03-23T05:36:29;97630.86;;;9.49;83.82
69127;BME280;56688;50.234;19.292;2024-03-23T05:38:55;97629.54;;;9.53;83.73
69127;BME280;56688;50.234;19.292;2024-03-23T05:41:21;97621.11;;;9.56;83.64
69127;BME280;56688;50.234;19.292;2024-03-23T05:43:50;97616.89;;;9.58;83.39
69127;BME280;56688;50.234;19.292;2024-03-23T05:46:16;97619.13;;;9.61;83.27
69127;BME280;56688;50.234;19.292;2024-03-23T05:48:43;97611.35;;;9.64;83.34
69127;BME280;56688;50.234;19.292;2024-03-23T05:51:09;97611.87;;;9.67;83.00
69127;BME280;56688;50.234;19.292;2024-03-23T05:53:35;97615.27;;;9.70;83.04
69127;BME280;56688;50.234;19.292;2024-03-23T05:56:02;97608.83;;;9.73;83.00
69127;BME280;56688;50.234;19.292;2024-03-23T05:58:30;97603.70;;;9.74;83.05
69127;BME280;56688;50.234;19.292;2024-03-23T06:00:58;97602.64;;;9.77;83.04
69127;BME280;56688;50.234;19.292;2024-03-23T06:03:26;97605.88;;;9.81;83.07
69127;BME280;56688;50.234;19.292;2024-03-23T06:05:52;97610.61;;;9.84;83.04
69127;BME280;56688;50.234;19.292;2024-03-23T06:08:19;97606.45;;;9.88;83.05
69127;BME280;56688;50.234;19.292;2024-03-23T06:10:46;97606.62;;;9.93;82.94
69127;BME280;56688;50.234;19.292;2024-03-23T06:13:13;97607.02;;;9.97;82.68
69127;BME280;56688;50.234;19.292;2024-03-23T06:15:41;97610.25;;;9.95;82.38
69127;BME280;56688;50.234;19.292;2024-03-23T06:18:07;97600.98;;;9.94;82.75
69127;BME280;56688;50.234;19.292;2024-03-23T06:20:34;97602.51;;;9.93;82.77
69127;BME280;56688;50.234;19.292;2024-03-23T06:23:01;97594.02;;;9.92;83.02
69127;BME280;56688;50.234;19.292;2024-03-23T06:25:27;97581.53;;;9.91;83.24
69127;BME280;56688;50.234;19.292;2024-03-23T06:27:53;97577.59;;;9.92;83.15
69127;BME280;56688;50.234;19.292;2024-03-23T06:30:19;97578.46;;;9.91;83.26
69127;BME280;56688;50.234;19.292;2024-03-23T06:32:45;97577.43;;;9.89;83.51
69127;BME280;56688;50.234;19.292;2024-03-23T06:35:10;97569.02;;;9.86;83.90
69127;BME280;56688;50.234;19.292;2024-03-23T06:37:36;97560.20;;;9.83;83.90
69127;BME280;56688;50.234;19.292;2024-03-23T06:40:02;97560.25;;;9.82;84.35
69127;BME280;56688;50.234;19.292;2024-03-23T06:42:30;97560.04;;;9.83;84.59
69127;BME280;56688;50.234;19.292;2024-03-23T06:44:56;97558.30;;;9.85;85.04
69127;BME280;56688;50.234;19.292;2024-03-23T06:47:22;97555.84;;;9.90;85.38
69127;BME280;56688;50.234;19.292;2024-03-23T06:49:48;97552.91;;;10.00;85.49
69127;BME280;56688;50.234;19.292;2024-03-23T06:52:14;97544.23;;;10.11;85.48
69127;BME280;56688;50.234;19.292;2024-03-23T06:54:40;97546.04;;;10.23;85.21
69127;BME280;56688;50.234;19.292;2024-03-23T06:57:06;97548.88;;;10.36;85.06
69127;BME280;56688;50.234;19.292;2024-03-23T06:59:32;97551.46;;;10.51;84.93
69127;BME280;56688;50.234;19.292;2024-03-23T07:01:58;97551.70;;;10.66;84.99
69127;BME280;56688;50.234;19.292;2024-03-23T07:04:24;97551.95;;;10.83;84.55
69127;BME280;56688;50.234;19.292;2024-03-23T07:06:50;97550.86;;;10.95;83.96
69127;BME280;56688;50.234;19.292;2024-03-23T07:09:16;97546.55;;;11.03;82.58
69127;BME280;56688;50.234;19.292;2024-03-23T07:11:42;97545.33;;;11.06;81.41
69127;BME280;56688;50.234;19.292;2024-03-23T07:14:08;97543.33;;;11.10;80.30
69127;BME280;56688;50.234;19.292;2024-03-23T07:16:34;97541.40;;;11.18;80.31
69127;BME280;56688;50.234;19.292;2024-03-23T07:19:00;97540.30;;;11.28;80.17
69127;BME280;56688;50.234;19.292;2024-03-23T07:21:26;97534.67;;;11.43;79.51
69127;BME280;56688;50.234;19.292;2024-03-23T07:23:52;97533.60;;;11.60;78.88
69127;BME280;56688;50.234;19.292;2024-03-23T07:26:17;97532.70;;;11.82;78.48
69127;BME280;56688;50.234;19.292;2024-03-23T07:28:44;97526.57;;;12.08;78.09
69127;BME280;56688;50.234;19.292;2024-03-23T07:31:13;97526.84;;;12.34;76.91
69127;BME280;56688;50.234;19.292;2024-03-23T07:33:44;97527.55;;;12.53;76.06
69127;BME280;56688;50.234;19.292;2024-03-23T07:36:10;97527.61;;;12.72;74.56
69127;BME280;56688;50.234;19.292;2024-03-23T07:38:36;97525.66;;;12.91;72.60
69127;BME280;56688;50.234;19.292;2024-03-23T07:43:30;97514.08;;;13.77;71.05
69127;BME280;56688;50.234;19.292;2024-03-23T07:45:56;97509.48;;;14.32;68.42
69127;BME280;56688;50.234;19.292;2024-03-23T07:48:22;97511.91;;;14.57;67.08
69127;BME280;56688;50.234;19.292;2024-03-23T07:51:09;97509.54;;;14.76;66.19
69127;BME280;56688;50.234;19.292;2024-03-23T07:53:37;97504.73;;;15.00;63.88
69127;BME280;56688;50.234;19.292;2024-03-23T07:56:06;97496.37;;;15.02;62.75
69127;BME280;56688;50.234;19.292;2024-03-23T07:58:33;97497.73;;;15.13;62.25
69127;BME280;56688;50.234;19.292;2024-03-23T08:03:30;97485.64;;;15.50;60.42
69127;BME280;56688;50.234;19.292;2024-03-23T08:05:56;97482.42;;;15.80;60.05
69127;BME280;56688;50.234;19.292;2024-03-23T08:08:22;97480.16;;;16.22;58.00
69127;BME280;56688;50.234;19.292;2024-03-23T08:10:49;97472.48;;;16.75;57.61
69127;BME280;56688;50.234;19.292;2024-03-23T08:13:15;97471.63;;;17.27;55.94
69127;BME280;56688;50.234;19.292;2024-03-23T08:15:41;97467.95;;;17.61;55.12
69127;BME280;56688;50.234;19.292;2024-03-23T08:18:07;97455.45;;;18.01;53.31
69127;BME280;56688;50.234;19.292;2024-03-23T08:20:33;97451.48;;;18.38;49.75
69127;BME280;56688;50.234;19.292;2024-03-23T08:22:59;97445.30;;;18.49;48.45
69127;BME280;56688;50.234;19.292;2024-03-23T08:25:25;97432.84;;;18.56;49.62
69127;BME280;56688;50.234;19.292;2024-03-23T08:27:52;97439.74;;;18.80;49.47
69127;BME280;56688;50.234;19.292;2024-03-23T08:30:17;97442.30;;;19.24;48.86
69127;BME280;56688;50.234;19.292;2024-03-23T08:32:44;97439.04;;;19.65;46.11
69127;BME280;56688;50.234;19.292;2024-03-23T08:35:10;97439.99;;;19.87;45.67
69127;BME280;56688;50.234;19.292;2024-03-23T08:37:35;97438.95;;;19.95;44.67
69127;BME280;56688;50.234;19.292;2024-03-23T08:40:01;97422.27;;;20.00;45.05
69127;BME280;56688;50.234;19.292;2024-03-23T08:42:30;97419.80;;;20.28;46.22
69127;BME280;56688;50.234;19.292;2024-03-23T08:44:56;97414.92;;;20.79;45.07
69127;BME280;56688;50.234;19.292;2024-03-23T08:47:22;97411.39;;;21.23;43.77
69127;BME280;56688;50.234;19.292;2024-03-23T08:49:48;97399.41;;;21.48;43.52
69127;BME280;56688;50.234;19.292;2024-03-23T08:52:13;97394.54;;;21.40;41.64
69127;BME280;56688;50.234;19.292;2024-03-23T08:54:39;97390.30;;;21.22;40.79
69127;BME280;56688;50.234;19.292;2024-03-23T08:57:05;97383.78;;;21.22;41.42
69127;BME280;56688;50.234;19.292;2024-03-23T08:59:32;97378.60;;;21.26;41.51
69127;BME280;56688;50.234;19.292;2024-03-23T09:01:58;97364.02;;;21.47;42.18
69127;BME280;56688;50.234;19.292;2024-03-23T09:04:24;97363.13;;;21.73;40.96
69127;BME280;56688;50.234;19.292;2024-03-23T09:06:50;97357.85;;;21.84;41.13
69127;BME280;56688;50.234;19.292;2024-03-23T09:09:16;97354.08;;;21.90;39.92
69127;BME280;56688;50.234;19.292;2024-03-23T09:11:42;97341.65;;;21.83;39.81
69127;BME280;56688;50.234;19.292;2024-03-23T09:14:09;97339.98;;;21.77;39.82
69127;BME280;56688;50.234;19.292;2024-03-23T09:16:35;97332.50;;;21.61;39.28
69127;BME280;56688;50.234;19.292;2024-03-23T09:19:01;97323.46;;;21.38;40.88
69127;BME280;56688;50.234;19.292;2024-03-23T09:21:27;97319.02;;;21.59;41.04
69127;BME280;56688;50.234;19.292;2024-03-23T09:23:53;97311.73;;;21.98;40.20
69127;BME280;56688;50.234;19.292;2024-03-23T09:26:18;97308.16;;;22.07;38.52
69127;BME280;56688;50.234;19.292;2024-03-23T09:28:44;97311.20;;;21.93;38.60
69127;BME280;56688;50.234;19.292;2024-03-23T09:31:10;97307.00;;;21.75;38.71
69127;BME280;56688;50.234;19.292;2024-03-23T09:33:40;97305.05;;;21.68;39.49
69127;BME280;56688;50.234;19.292;2024-03-23T09:36:07;97301.21;;;21.63;39.73
69127;BME280;56688;50.234;19.292;2024-03-23T09:38:33;97298.17;;;21.47;39.35
69127;BME280;56688;50.234;19.292;2024-03-23T09:40:59;97291.30;;;21.33;39.53
69127;BME280;56688;50.234;19.292;2024-03-23T09:43:26;97288.52;;;21.34;40.01
69127;BME280;56688;50.234;19.292;2024-03-23T09:45:52;97279.89;;;21.38;39.57
69127;BME280;56688;50.234;19.292;2024-03-23T09:48:19;97272.33;;;21.35;38.72
69127;BME280;56688;50.234;19.292;2024-03-23T09:50:45;97267.25;;;21.42;39.37
69127;BME280;56688;50.234;19.292;2024-03-23T09:53:13;97255.73;;;21.46;37.99
69127;BME280;56688;50.234;19.292;2024-03-23T09:55:41;97252.70;;;21.51;38.16
69127;BME280;56688;50.234;19.292;2024-03-23T09:58:08;97241.94;;;21.36;38.00
69127;BME280;56688;50.234;19.292;2024-03-23T10:00:37;97235.02;;;21.12;37.92
69127;BME280;56688;50.234;19.292;2024-03-23T10:03:04;97232.34;;;20.80;37.96
69127;BME280;56688;50.234;19.292;2024-03-23T10:05:30;97218.08;;;20.55;37.48
69127;BME280;56688;50.234;19.292;2024-03-23T10:08:17;97218.38;;;20.41;37.62
69127;BME280;56688;50.234;19.292;2024-03-23T10:10:44;97212.13;;;20.32;38.26
69127;BME280;56688;50.234;19.292;2024-03-23T10:13:11;97202.14;;;20.19;37.97
69127;BME280;56688;50.234;19.292;2024-03-23T10:15:39;97197.11;;;20.08;38.52
69127;BME280;56688;50.234;19.292;2024-03-23T10:20:43;97194.34;;;20.00;38.32
69127;BME280;56688;50.234;19.292;2024-03-23T10:23:16;97185.28;;;19.95;38.46
69127;BME280;56688;50.234;19.292;2024-03-23T10:25:42;97179.95;;;20.03;38.86
69127;BME280;56688;50.234;19.292;2024-03-23T10:28:08;97178.67;;;20.18;38.12
69127;BME280;56688;50.234;19.292;2024-03-23T10:30:35;97169.86;;;20.27;37.97
69127;BME280;56688;50.234;19.292;2024-03-23T10:33:09;97160.88;;;20.40;37.94
69127;BME280;56688;50.234;19.292;2024-03-23T10:35:37;97157.03;;;20.53;37.20
69127;BME280;56688;50.234;19.292;2024-03-23T10:38:05;97156.04;;;20.61;37.46
69127;BME280;56688;50.234;19.292;2024-03-23T10:40:34;97151.10;;;20.74;36.52
69127;BME280;56688;50.234;19.292;2024-03-23T10:43:03;97151.16;;;20.78;36.42
69127;BME280;56688;50.234;19.292;2024-03-23T10:45:29;97140.73;;;20.79;36.06
69127;BME280;56688;50.234;19.292;2024-03-23T10:47:55;97135.42;;;20.77;36.75
69127;BME280;56688;50.234;19.292;2024-03-23T10:50:23;97125.19;;;20.85;36.71
69127;BME280;56688;50.234;19.292;2024-03-23T10:52:52;97124.31;;;20.91;35.22
69127;BME280;56688;50.234;19.292;2024-03-23T10:55:19;97122.71;;;20.83;35.12
69127;BME280;56688;50.234;19.292;2024-03-23T10:57:51;97121.47;;;20.78;35.36
69127;BME280;56688;50.234;19.292;2024-03-23T11:00:18;97113.84;;;20.75;34.64
69127;BME280;56688;50.234;19.292;2024-03-23T11:02:48;97109.77;;;20.71;35.01
69127;BME280;56688;50.234;19.292;2024-03-23T11:05:33;97105.86;;;20.72;35.24
69127;BME280;56688;50.234;19.292;2024-03-23T11:08:00;97102.55;;;20.75;35.86
69127;BME280;56688;50.234;19.292;2024-03-23T11:10:29;97096.74;;;20.85;35.19
69127;BME280;56688;50.234;19.292;2024-03-23T11:12:56;97099.05;;;20.97;34.95
69127;BME280;56688;50.234;19.292;2024-03-23T11:15:23;97097.34;;;20.95;34.42
69127;BME280;56688;50.234;19.292;2024-03-23T11:18:08;97088.87;;;20.90;35.24
69127;BME280;56688;50.234;19.292;2024-03-23T11:20:35;97081.81;;;20.99;35.56
69127;BME280;56688;50.234;19.292;2024-03-23T11:23:01;97071.85;;;21.15;35.34
69127;BME280;56688;50.234;19.292;2024-03-23T11:25:28;97064.59;;;21.32;35.73
69127;BME280;56688;50.234;19.292;2024-03-23T11:27:57;97055.60;;;21.49;34.94
69127;BME280;56688;50.234;19.292;2024-03-23T11:30:25;97041.72;;;21.54;34.42
69127;BME280;56688;50.234;19.292;2024-03-23T11:32:54;97034.47;;;21.63;34.32
69127;BME280;56688;50.234;19.292;2024-03-23T11:35:34;97017.67;;;21.71;33.88
69127;BME280;56688;50.234;19.292;2024-03-23T11:38:03;97009.45;;;21.75;33.45
69127;BME280;56688;50.234;19.292;2024-03-23T11:40:30;96990.29;;;21.77;33.37
69127;BME280;56688;50.234;19.292;2024-03-23T11:42:59;96981.09;;;21.86;32.82
69127;BME280;56688;50.234;19.292;2024-03-23T11:45:25;96979.71;;;21.95;33.22
69127;BME280;56688;50.234;19.292;2024-03-23T11:48:14;96971.35;;;21.93;32.79
69127;BME280;56688;50.234;19.292;2024-03-23T11:50:42;96966.35;;;22.00;32.99
69127;BME280;56688;50.234;19.292;2024-03-23T11:53:13;96960.08;;;22.14;33.11
69127;BME280;56688;50.234;19.292;2024-03-23T11:55:49;96960.63;;;22.28;33.34
69127;BME280;56688;50.234;19.292;2024-03-23T11:58:17;96949.27;;;22.39;32.80
69127;BME280;56688;50.234;19.292;2024-03-23T12:00:50;96942.40;;;22.48;32.80
69127;BME280;56688;50.234;19.292;2024-03-23T12:03:18;96936.06;;;22.54;32.79
69127;BME280;56688;50.234;19.292;2024-03-23T12:05:49;96923.73;;;22.56;33.14
69127;BME280;56688;50.234;19.292;2024-03-23T12:08:22;96917.88;;;22.54;32.26
69127;BME280;56688;50.234;19.292;2024-03-23T12:10:50;96916.59;;;22.54;31.09
69127;BME280;56688;50.234;19.292;2024-03-23T12:13:20;96915.20;;;22.55;30.98
69127;BME280;56688;50.234;19.292;2024-03-23T12:15:50;96898.34;;;22.62;31.46
69127;BME280;56688;50.234;19.292;2024-03-23T12:18:17;96894.08;;;22.75;31.21
69127;BME280;56688;50.234;19.292;2024-03-23T12:20:49;96887.45;;;22.90;31.04
69127;BME280;56688;50.234;19.292;2024-03-23T12:23:15;96875.67;;;22.96;30.97
69127;BME280;56688;50.234;19.292;2024-03-23T12:25:42;96880.16;;;23.07;30.57
69127;BME280;56688;50.234;19.292;2024-03-23T12:28:08;96870.95;;;23.25;30.33
69127;BME280;56688;50.234;19.292;2024-03-23T12:30:36;96865.33;;;23.45;30.14
69127;BME280;56688;50.234;19.292;2024-03-23T12:33:04;96863.11;;;23.76;30.04
69127;BME280;56688;50.234;19.292;2024-03-23T12:35:30;96856.98;;;24.00;30.13
69127;BME280;56688;50.234;19.292;2024-03-23T12:37:56;96848.55;;;24.37;29.91
69127;BME280;56688;50.234;19.292;2024-03-23T12:40:22;96840.13;;;24.61;28.98
69127;BME280;56688;50.234;19.292;2024-03-23T12:42:48;96836.48;;;24.77;29.53
69127;BME280;56688;50.234;19.292;2024-03-23T12:45:15;96834.27;;;24.99;28.02
69127;BME280;56688;50.234;19.292;2024-03-23T12:47:41;96823.09;;;25.23;27.74
69127;BME280;56688;50.234;19.292;2024-03-23T12:50:07;96815.14;;;25.30;28.21
69127;BME280;56688;50.234;19.292;2024-03-23T12:52:34;96806.83;;;25.46;27.87
69127;BME280;56688;50.234;19.292;2024-03-23T12:54:59;96793.11;;;25.65;27.45
69127;BME280;56688;50.234;19.292;2024-03-23T12:57:26;96776.16;;;25.82;27.69
69127;BME280;56688;50.234;19.292;2024-03-23T12:59:53;96788.40;;;25.90;27.59
69127;BME280;56688;50.234;19.292;2024-03-23T13:02:19;96778.40;;;26.00;27.08
69127;BME280;56688;50.234;19.292;2024-03-23T13:04:49;96773.15;;;26.28;27.33
69127;BME280;56688;50.234;19.292;2024-03-23T13:07:17;96766.79;;;26.62;26.36
69127;BME280;56688;50.234;19.292;2024-03-23T13:09:44;96759.80;;;26.78;24.35
69127;BME280;56688;50.234;19.292;2024-03-23T13:12:10;96758.15;;;26.91;24.74
69127;BME280;56688;50.234;19.292;2024-03-23T13:14:39;96755.98;;;27.19;24.74
69127;BME280;56688;50.234;19.292;2024-03-23T13:17:06;96742.47;;;27.36;23.10
69127;BME280;56688;50.234;19.292;2024-03-23T13:19:35;96742.39;;;27.20;23.41
69127;BME280;56688;50.234;19.292;2024-03-23T13:22:02;96743.06;;;27.10;23.00
69127;BME280;56688;50.234;19.292;2024-03-23T13:24:29;96744.73;;;27.06;23.20
69127;BME280;56688;50.234;19.292;2024-03-23T13:26:56;96744.58;;;26.81;23.18
69127;BME280;56688;50.234;19.292;2024-03-23T13:29:23;96744.79;;;25.99;24.02
69127;BME280;56688;50.234;19.292;2024-03-23T13:31:51;96749.90;;;25.08;24.74
69127;BME280;56688;50.234;19.292;2024-03-23T13:34:18;96746.69;;;24.28;25.83
69127;BME280;56688;50.234;19.292;2024-03-23T13:36:45;96752.52;;;23.59;26.66
69127;BME280;56688;50.234;19.292;2024-03-23T13:39:11;96743.11;;;23.07;27.44
69127;BME280;56688;50.234;19.292;2024-03-23T13:41:40;96739.89;;;22.68;28.37
69127;BME280;56688;50.234;19.292;2024-03-23T13:44:07;96739.72;;;22.31;28.63
69127;BME280;56688;50.234;19.292;2024-03-23T13:46:33;96745.21;;;21.98;29.70
69127;BME280;56688;50.234;19.292;2024-03-23T13:49:00;96746.53;;;21.67;31.03
69127;BME280;56688;50.234;19.292;2024-03-23T13:51:27;96753.05;;;21.40;32.08
69127;BME280;56688;50.234;19.292;2024-03-23T13:53:53;96759.16;;;21.15;32.54